Time,TemperatureF,DewpointF,PressureIn,WindDirection,WindDirectionDegrees,WindSpeedMPH,WindSpeedGustMPH,Humidity,HourlyPrecipIn,Conditions,Clouds,dailyrainin,SolarRadiationWatts/m^2,SoftwareType,DateUTC
2013-02-08 00:04:00,69.5,62.3,29.95,NNE,23,2.0,-999.0,78,0.00,,,0.00,0,Wunderground v.1.15,2013-02-07 13:04:00,
2013-02-08 00:09:00,69.5,62.3,29.95,NNE,23,2.0,-999.0,78,0.00,,,0.00,0,Wunderground v.1.15,2013-02-07 13:09:00,
2013-02-08 00:14:00,69.5,62.3,29.95,NNE,23,2.0,-999.0,78,0.00,,,0.00,0,Wunderground v.1.15,2013-02-07 13:14:00,
2013-02-08 00:19:00,69.5,62.3,29.95,NNE,23,2.0,-999.0,78,0.00,,,0.00,0,Wunderground v.1.15,2013-02-07 13:19:00,
2013-02-08 00:24:00,69.5,62.3,29.95,NNE,23,2.0,-999.0,78,0.00,,,0.00,0,Wunderground v.1.15,2013-02-07 13:24:00,
2013-02-08 00:29:00,69.5,62.3,29.95,NNE,23,2.0,-999.0,78,0.00,,,0.00,0,Wunderground v.1.15,2013-02-07 13:29:00,
2013-02-08 00:34:00,69.5,62.3,29.95,NNE,23,2.0,-999.0,78,0.00,,,0.00,0,Wunderground v.1.15,2013-02-07 13:34:00,
2013-02-08 00:39:00,69.5,62.3,29.95,NNE,23,2.0,-999.0,78,0.00,,,0.00,0,Wunderground v.1.15,2013-02-07 13:39:00,
2013-02-08 00:44:00,69.5,62.3,29.95,NNE,23,2.0,-999.0,78,0.00,,,0.00,0,Wunderground v.1.15,2013-02-07 13:44:00,
2013-02-08 00:49:00,68.8,62.0,29.95,NE,45,1.0,-999.0,79,0.00,,,0.00,0,Wunderground v.1.15,2013-02-07 13:49:00,
2013-02-08 00:54:00,68.8,62.0,29.95,NE,45,1.0,-999.0,79,0.00,,,0.00,0,Wunderground v.1.15,2013-02-07 13:54:00,
2013-02-08 00:59:00,68.8,62.0,29.95,NE,45,1.0,-999.0,79,0.00,,,0.00,0,Wunderground v.1.15,2013-02-07 13:59:00,
2013-02-08 01:04:00,68.8,62.0,29.95,NE,45,1.0,-999.0,79,0.00,,,0.00,0,Wunderground v.1.15,2013-02-07 14:04:00,
2013-02-08 01:09:00,68.8,62.0,29.95,NE,45,1.0,-999.0,79,0.00,,,0.00,0,Wunderground v.1.15,2013-02-07 14:09:00,
2013-02-08 01:14:00,68.8,62.0,29.95,NE,45,1.0,-999.0,79,0.00,,,0.00,0,Wunderground v.1.15,2013-02-07 14:14:00,
2013-02-08 01:19:00,68.3,61.9,29.94,NE,45,1.0,-999.0,80,0.00,,,0.00,0,Wunderground v.1.15,2013-02-07 14:19:00,
2013-02-08 01:24:00,68.3,61.9,29.94,NE,45,1.0,-999.0,80,0.00,,,0.00,0,Wunderground v.1.15,2013-02-07 14:24:00,
2013-02-08 01:29:00,68.3,61.9,29.94,NE,45,1.0,-999.0,80,0.00,,,0.00,0,Wunderground v.1.15,2013-02-07 14:29:00,
2013-02-08 01:34:00,68.3,61.9,29.94,NE,45,1.0,-999.0,80,0.00,,,0.00,0,Wunderground v.1.15,2013-02-07 14:34:00,
2013-02-08 01:39:00,68.3,61.9,29.94,NE,45,1.0,-999.0,80,0.00,,,0.00,0,Wunderground v.1.15,2013-02-07 14:39:00,
2013-02-08 01:44:00,68.3,61.9,29.94,NE,45,1.0,-999.0,80,0.00,,,0.00,0,Wunderground v.1.15,2013-02-07 14:44:00,
2013-02-08 01:49:00,68.0,61.6,29.93,NE,45,1.0,-999.0,80,0.00,,,0.00,0,Wunderground v.1.15,2013-02-07 14:49:00,
2013-02-08 01:54:00,68.0,61.6,29.93,NE,45,1.0,-999.0,80,0.00,,,0.00,0,Wunderground v.1.15,2013-02-07 14:54:00,
2013-02-08 01:59:00,68.0,61.6,29.93,NE,45,1.0,-999.0,80,0.00,,,0.00,0,Wunderground v.1.15,2013-02-07 14:59:00,
2013-02-08 02:04:00,68.0,61.6,29.93,NE,45,1.0,-999.0,80,0.00,,,0.00,0,Wunderground v.1.15,2013-02-07 15:04:00,
2013-02-08 02:09:00,68.0,61.6,29.93,NE,45,1.0,-999.0,80,0.00,,,0.00,0,Wunderground v.1.15,2013-02-07 15:09:00,
2013-02-08 02:14:00,68.0,61.6,29.93,NE,45,1.0,-999.0,80,0.00,,,0.00,0,Wunderground v.1.15,2013-02-07 15:14:00,
2013-02-08 02:19:00,67.6,61.6,29.93,NE,45,1.0,-999.0,81,0.00,,,0.00,0,Wunderground v.1.15,2013-02-07 15:19:00,
2013-02-08 02:24:00,67.6,61.6,29.93,NE,45,1.0,-999.0,81,0.00,,,0.00,0,Wunderground v.1.15,2013-02-07 15:24:00,
2013-02-08 02:29:00,67.6,61.6,29.93,NE,45,1.0,-999.0,81,0.00,,,0.00,0,Wunderground v.1.15,2013-02-07 15:29:00,
2013-02-08 02:34:00,67.6,61.6,29.93,NE,45,1.0,-999.0,81,0.00,,,0.00,0,Wunderground v.1.15,2013-02-07 15:34:00,
2013-02-08 02:39:00,67.6,61.6,29.93,NE,45,1.0,-999.0,81,0.00,,,0.00,0,Wunderground v.1.15,2013-02-07 15:39:00,
2013-02-08 02:44:00,67.6,61.6,29.93,NE,45,1.0,-999.0,81,0.00,,,0.00,0,Wunderground v.1.15,2013-02-07 15:44:00,
2013-02-08 02:49:00,67.2,61.5,29.92,NE,45,1.0,-999.0,82,0.00,,,0.00,0,Wunderground v.1.15,2013-02-07 15:49:00,
2013-02-08 02:54:00,67.2,61.5,29.92,NE,45,1.0,-999.0,82,0.00,,,0.00,0,Wunderground v.1.15,2013-02-07 15:54:00,
2013-02-08 02:59:00,67.2,61.5,29.92,NE,45,1.0,-999.0,82,0.00,,,0.00,0,Wunderground v.1.15,2013-02-07 15:59:00,
2013-02-08 03:04:00,67.2,61.5,29.92,NE,45,1.0,-999.0,82,0.00,,,0.00,0,Wunderground v.1.15,2013-02-07 16:04:00,
2013-02-08 03:09:00,67.2,61.5,29.92,NE,45,1.0,-999.0,82,0.00,,,0.00,0,Wunderground v.1.15,2013-02-07 16:09:00,
2013-02-08 03:14:00,67.2,61.5,29.92,NE,45,1.0,-999.0,82,0.00,,,0.00,0,Wunderground v.1.15,2013-02-07 16:14:00,
2013-02-08 03:19:00,66.3,61.3,29.92,NNE,23,0.0,-999.0,84,0.00,,,0.00,0,Wunderground v.1.15,2013-02-07 16:19:00,
2013-02-08 03:24:00,66.3,61.3,29.92,NNE,23,0.0,-999.0,84,0.00,,,0.00,0,Wunderground v.1.15,2013-02-07 16:24:00,
2013-02-08 03:29:00,66.3,61.3,29.92,NNE,23,0.0,-999.0,84,0.00,,,0.00,0,Wunderground v.1.15,2013-02-07 16:29:00,
2013-02-08 03:34:00,66.3,61.3,29.92,NNE,23,0.0,-999.0,84,0.00,,,0.00,0,Wunderground v.1.15,2013-02-07 16:34:00,
2013-02-08 03:39:00,66.3,61.3,29.92,NNE,23,0.0,-999.0,84,0.00,,,0.00,0,Wunderground v.1.15,2013-02-07 16:39:00,
2013-02-08 03:44:00,66.3,61.3,29.92,NNE,23,0.0,-999.0,84,0.00,,,0.00,0,Wunderground v.1.15,2013-02-07 16:44:00,
2013-02-08 03:49:00,65.0,60.7,29.92,NNE,23,0.0,-999.0,86,0.00,,,0.00,0,Wunderground v.1.15,2013-02-07 16:49:00,
2013-02-08 03:54:00,65.0,60.7,29.92,NNE,23,0.0,-999.0,86,0.00,,,0.00,0,Wunderground v.1.15,2013-02-07 16:54:00,
2013-02-08 03:59:00,65.0,60.7,29.92,NNE,23,0.0,-999.0,86,0.00,,,0.00,0,Wunderground v.1.15,2013-02-07 16:59:00,
2013-02-08 04:04:00,65.0,60.7,29.92,NNE,23,0.0,-999.0,86,0.00,,,0.00,0,Wunderground v.1.15,2013-02-07 17:04:00,
2013-02-08 04:09:00,65.0,60.7,29.92,NNE,23,0.0,-999.0,86,0.00,,,0.00,0,Wunderground v.1.15,2013-02-07 17:09:00,
2013-02-08 04:14:00,65.0,60.7,29.92,NNE,23,0.0,-999.0,86,0.00,,,0.00,0,Wunderground v.1.15,2013-02-07 17:14:00,
2013-02-08 04:19:00,64.4,60.4,29.91,NNE,23,0.0,-999.0,87,0.00,,,0.00,0,Wunderground v.1.15,2013-02-07 17:19:00,
2013-02-08 04:24:00,64.4,60.4,29.91,NNE,23,0.0,-999.0,87,0.00,,,0.00,0,Wunderground v.1.15,2013-02-07 17:24:00,
2013-02-08 04:29:00,64.4,60.4,29.91,NNE,23,0.0,-999.0,87,0.00,,,0.00,0,Wunderground v.1.15,2013-02-07 17:29:00,
2013-02-08 04:34:00,64.4,60.4,29.91,NNE,23,0.0,-999.0,87,0.00,,,0.00,0,Wunderground v.1.15,2013-02-07 17:34:00,
2013-02-08 04:39:00,64.4,60.4,29.91,NNE,23,0.0,-999.0,87,0.00,,,0.00,0,Wunderground v.1.15,2013-02-07 17:39:00,
2013-02-08 04:44:00,64.4,60.4,29.91,NNE,23,0.0,-999.0,87,0.00,,,0.00,0,Wunderground v.1.15,2013-02-07 17:44:00,
2013-02-08 04:49:00,63.3,59.7,29.92,NNE,23,0.0,-999.0,88,0.00,,,0.00,0,Wunderground v.1.15,2013-02-07 17:49:00,
2013-02-08 04:54:00,63.3,59.7,29.92,NNE,23,0.0,-999.0,88,0.00,,,0.00,0,Wunderground v.1.15,2013-02-07 17:54:00,
2013-02-08 04:59:00,63.3,59.7,29.92,NNE,23,0.0,-999.0,88,0.00,,,0.00,0,Wunderground v.1.15,2013-02-07 17:59:00,
2013-02-08 05:04:00,63.3,59.7,29.92,NNE,23,0.0,-999.0,88,0.00,,,0.00,0,Wunderground v.1.15,2013-02-07 18:04:00,
2013-02-08 05:09:00,63.3,59.7,29.92,NNE,23,0.0,-999.0,88,0.00,,,0.00,0,Wunderground v.1.15,2013-02-07 18:09:00,
2013-02-08 05:14:00,63.3,59.7,29.92,NNE,23,0.0,-999.0,88,0.00,,,0.00,0,Wunderground v.1.15,2013-02-07 18:14:00,
2013-02-08 05:19:00,62.6,59.6,29.92,NNE,23,0.0,-999.0,90,0.00,,,0.00,0,Wunderground v.1.15,2013-02-07 18:19:00,
2013-02-08 05:24:00,62.6,59.6,29.92,NNE,23,0.0,-999.0,90,0.00,,,0.00,0,Wunderground v.1.15,2013-02-07 18:24:00,
2013-02-08 05:29:00,62.6,59.6,29.92,NNE,23,0.0,-999.0,90,0.00,,,0.00,0,Wunderground v.1.15,2013-02-07 18:29:00,
2013-02-08 05:34:00,62.6,59.6,29.92,NNE,23,0.0,-999.0,90,0.00,,,0.00,0,Wunderground v.1.15,2013-02-07 18:34:00,
2013-02-08 05:39:00,62.6,59.6,29.92,NNE,23,0.0,-999.0,90,0.00,,,0.00,0,Wunderground v.1.15,2013-02-07 18:39:00,
2013-02-08 05:44:00,62.6,59.6,29.92,NNE,23,0.0,-999.0,90,0.00,,,0.00,0,Wunderground v.1.15,2013-02-07 18:44:00,
2013-02-08 05:49:00,63.0,59.7,29.92,NE,45,0.0,-999.0,89,0.00,,,0.00,0,Wunderground v.1.15,2013-02-07 18:49:00,
2013-02-08 05:54:00,63.0,59.7,29.92,NE,45,0.0,-999.0,89,0.00,,,0.00,0,Wunderground v.1.15,2013-02-07 18:54:00,
2013-02-08 05:59:00,63.0,59.7,29.92,NE,45,0.0,-999.0,89,0.00,,,0.00,0,Wunderground v.1.15,2013-02-07 18:59:00,
2013-02-08 06:04:00,63.0,59.7,29.92,NE,45,0.0,-999.0,89,0.00,,,0.00,0,Wunderground v.1.15,2013-02-07 19:04:00,
2013-02-08 06:09:00,63.0,59.7,29.92,NE,45,0.0,-999.0,89,0.00,,,0.00,0,Wunderground v.1.15,2013-02-07 19:09:00,
2013-02-08 06:14:00,63.0,59.7,29.92,NE,45,0.0,-999.0,89,0.00,,,0.00,0,Wunderground v.1.15,2013-02-07 19:14:00,
2013-02-08 06:19:00,62.7,59.7,29.94,NNE,23,0.0,-999.0,90,0.00,,,0.00,2,Wunderground v.1.15,2013-02-07 19:19:00,
2013-02-08 06:24:00,62.7,59.7,29.94,NNE,23,0.0,-999.0,90,0.00,,,0.00,2,Wunderground v.1.15,2013-02-07 19:24:00,
2013-02-08 06:29:00,62.7,59.7,29.94,NNE,23,0.0,-999.0,90,0.00,,,0.00,2,Wunderground v.1.15,2013-02-07 19:29:00,
2013-02-08 06:34:00,62.7,59.7,29.94,NNE,23,0.0,-999.0,90,0.00,,,0.00,2,Wunderground v.1.15,2013-02-07 19:34:00,
2013-02-08 06:39:00,62.7,59.7,29.94,NNE,23,0.0,-999.0,90,0.00,,,0.00,2,Wunderground v.1.15,2013-02-07 19:39:00,
2013-02-08 06:44:00,62.7,59.7,29.94,NNE,23,0.0,-999.0,90,0.00,,,0.00,2,Wunderground v.1.15,2013-02-07 19:44:00,
2013-02-08 06:49:00,61.9,59.2,29.95,NNE,23,0.0,-999.0,91,0.00,,,0.00,19,Wunderground v.1.15,2013-02-07 19:49:00,
2013-02-08 06:54:00,61.9,59.2,29.95,NNE,23,0.0,-999.0,91,0.00,,,0.00,19,Wunderground v.1.15,2013-02-07 19:54:00,
2013-02-08 06:59:00,61.9,59.2,29.95,NNE,23,0.0,-999.0,91,0.00,,,0.00,19,Wunderground v.1.15,2013-02-07 19:59:00,
2013-02-08 07:04:00,61.9,59.2,29.95,NNE,23,0.0,-999.0,91,0.00,,,0.00,19,Wunderground v.1.15,2013-02-07 20:04:00,
2013-02-08 07:09:00,61.9,59.2,29.95,NNE,23,0.0,-999.0,91,0.00,,,0.00,19,Wunderground v.1.15,2013-02-07 20:09:00,
2013-02-08 07:14:00,61.9,59.2,29.95,NNE,23,0.0,-999.0,91,0.00,,,0.00,19,Wunderground v.1.15,2013-02-07 20:14:00,
2013-02-08 07:19:00,62.3,59.6,29.95,NNE,23,0.0,-999.0,91,0.00,,,0.00,31,Wunderground v.1.15,2013-02-07 20:19:00,
2013-02-08 07:24:00,62.3,59.6,29.95,NNE,23,0.0,-999.0,91,0.00,,,0.00,31,Wunderground v.1.15,2013-02-07 20:24:00,
2013-02-08 07:29:00,62.3,59.6,29.95,NNE,23,0.0,-999.0,91,0.00,,,0.00,31,Wunderground v.1.15,2013-02-07 20:29:00,
2013-02-08 07:34:00,62.3,59.6,29.95,NNE,23,0.0,-999.0,91,0.00,,,0.00,31,Wunderground v.1.15,2013-02-07 20:34:00,
2013-02-08 07:39:00,62.3,59.6,29.95,NNE,23,0.0,-999.0,91,0.00,,,0.00,31,Wunderground v.1.15,2013-02-07 20:39:00,
2013-02-08 07:44:00,62.3,59.6,29.95,NNE,23,0.0,-999.0,91,0.00,,,0.00,31,Wunderground v.1.15,2013-02-07 20:44:00,
2013-02-08 07:49:00,63.6,60.6,29.96,North,0,1.0,-999.0,90,0.00,,,0.00,64,Wunderground v.1.15,2013-02-07 20:49:00,
2013-02-08 07:54:00,63.6,60.6,29.96,North,0,1.0,-999.0,90,0.00,,,0.00,64,Wunderground v.1.15,2013-02-07 20:54:00,
2013-02-08 07:59:00,63.6,60.6,29.96,North,0,1.0,-999.0,90,0.00,,,0.00,64,Wunderground v.1.15,2013-02-07 20:59:00,
2013-02-08 08:04:00,63.6,60.6,29.96,North,0,1.0,-999.0,90,0.00,,,0.00,64,Wunderground v.1.15,2013-02-07 21:04:00,
2013-02-08 08:09:00,63.6,60.6,29.96,North,0,1.0,-999.0,90,0.00,,,0.00,64,Wunderground v.1.15,2013-02-07 21:09:00,
2013-02-08 08:14:00,63.6,60.6,29.96,North,0,1.0,-999.0,90,0.00,,,0.00,64,Wunderground v.1.15,2013-02-07 21:14:00,
2013-02-08 08:19:00,66.1,60.4,29.98,NNE,23,3.0,-999.0,82,0.00,,,0.00,100,Wunderground v.1.15,2013-02-07 21:19:00,
2013-02-08 08:24:00,66.1,60.4,29.98,NNE,23,3.0,-999.0,82,0.00,,,0.00,100,Wunderground v.1.15,2013-02-07 21:24:00,
2013-02-08 08:29:00,66.1,60.4,29.98,NNE,23,3.0,-999.0,82,0.00,,,0.00,100,Wunderground v.1.15,2013-02-07 21:29:00,
2013-02-08 08:34:00,66.1,60.4,29.98,NNE,23,3.0,-999.0,82,0.00,,,0.00,100,Wunderground v.1.15,2013-02-07 21:34:00,
2013-02-08 08:39:00,66.1,60.4,29.98,NNE,23,3.0,-999.0,82,0.00,,,0.00,100,Wunderground v.1.15,2013-02-07 21:39:00,
2013-02-08 08:44:00,66.1,60.4,29.98,NNE,23,3.0,-999.0,82,0.00,,,0.00,100,Wunderground v.1.15,2013-02-07 21:44:00,
2013-02-08 08:49:00,69.5,61.2,29.98,North,0,3.0,-999.0,75,0.00,,,0.00,192,Wunderground v.1.15,2013-02-07 21:49:00,
2013-02-08 08:54:00,69.5,61.2,29.98,North,0,3.0,-999.0,75,0.00,,,0.00,192,Wunderground v.1.15,2013-02-07 21:54:00,
2013-02-08 08:59:00,69.5,61.2,29.98,North,0,3.0,-999.0,75,0.00,,,0.00,192,Wunderground v.1.15,2013-02-07 21:59:00,
2013-02-08 09:04:00,69.5,61.2,29.98,North,0,3.0,-999.0,75,0.00,,,0.00,192,Wunderground v.1.15,2013-02-07 22:04:00,
2013-02-08 09:09:00,69.5,61.2,29.98,North,0,3.0,-999.0,75,0.00,,,0.00,192,Wunderground v.1.15,2013-02-07 22:09:00,
2013-02-08 09:14:00,69.5,61.2,29.98,North,0,3.0,-999.0,75,0.00,,,0.00,192,Wunderground v.1.15,2013-02-07 22:14:00,
2013-02-08 09:19:00,72.0,62.1,29.99,NW,315,3.0,-999.0,71,0.00,,,0.00,480,Wunderground v.1.15,2013-02-07 22:19:00,
2013-02-08 09:24:00,72.0,62.1,29.99,NW,315,3.0,-999.0,71,0.00,,,0.00,480,Wunderground v.1.15,2013-02-07 22:24:00,
2013-02-08 09:29:00,72.0,62.1,29.99,NW,315,3.0,-999.0,71,0.00,,,0.00,480,Wunderground v.1.15,2013-02-07 22:29:00,
2013-02-08 09:34:00,72.0,62.1,29.99,NW,315,3.0,-999.0,71,0.00,,,0.00,480,Wunderground v.1.15,2013-02-07 22:34:00,
2013-02-08 09:39:00,72.0,62.1,29.99,NW,315,3.0,-999.0,71,0.00,,,0.00,480,Wunderground v.1.15,2013-02-07 22:39:00,
2013-02-08 09:44:00,72.0,62.1,29.99,NW,315,3.0,-999.0,71,0.00,,,0.00,480,Wunderground v.1.15,2013-02-07 22:44:00,
2013-02-08 09:49:00,74.6,62.5,30.00,NW,315,2.0,-999.0,66,0.00,,,0.00,656,Wunderground v.1.15,2013-02-07 22:49:00,
2013-02-08 09:54:00,74.6,62.5,30.00,NW,315,2.0,-999.0,66,0.00,,,0.00,656,Wunderground v.1.15,2013-02-07 22:54:00,
2013-02-08 09:59:00,74.6,62.5,30.00,NW,315,2.0,-999.0,66,0.00,,,0.00,656,Wunderground v.1.15,2013-02-07 22:59:00,
2013-02-08 10:04:00,74.6,62.5,30.00,NW,315,2.0,-999.0,66,0.00,,,0.00,656,Wunderground v.1.15,2013-02-07 23:04:00,
2013-02-08 10:09:00,74.6,62.5,30.00,NW,315,2.0,-999.0,66,0.00,,,0.00,656,Wunderground v.1.15,2013-02-07 23:09:00,
2013-02-08 10:14:00,74.6,62.5,30.00,NW,315,2.0,-999.0,66,0.00,,,0.00,656,Wunderground v.1.15,2013-02-07 23:14:00,
2013-02-08 10:19:00,77.3,62.8,30.00,NW,315,2.0,-999.0,61,0.00,,,0.00,753,Wunderground v.1.15,2013-02-07 23:19:00,
2013-02-08 10:24:00,77.3,62.8,30.00,NW,315,2.0,-999.0,61,0.00,,,0.00,753,Wunderground v.1.15,2013-02-07 23:24:00,
2013-02-08 10:29:00,77.3,62.8,30.00,NW,315,2.0,-999.0,61,0.00,,,0.00,753,Wunderground v.1.15,2013-02-07 23:29:00,
2013-02-08 10:34:00,77.3,62.8,30.00,NW,315,2.0,-999.0,61,0.00,,,0.00,753,Wunderground v.1.15,2013-02-07 23:34:00,
2013-02-08 10:39:00,77.3,62.8,30.00,NW,315,2.0,-999.0,61,0.00,,,0.00,753,Wunderground v.1.15,2013-02-07 23:39:00,
2013-02-08 10:44:00,77.3,62.8,30.00,NW,315,2.0,-999.0,61,0.00,,,0.00,753,Wunderground v.1.15,2013-02-07 23:44:00,
2013-02-08 10:49:00,80.6,63.5,29.99,NW,315,3.0,-999.0,56,0.00,,,0.00,830,Wunderground v.1.15,2013-02-07 23:49:00,
2013-02-08 10:54:00,80.6,63.5,29.99,NW,315,3.0,-999.0,56,0.00,,,0.00,830,Wunderground v.1.15,2013-02-07 23:54:00,
2013-02-08 10:59:00,80.6,63.5,29.99,NW,315,3.0,-999.0,56,0.00,,,0.00,830,Wunderground v.1.15,2013-02-07 23:59:00,
2013-02-08 11:04:00,80.6,63.5,29.99,NW,315,3.0,-999.0,56,0.00,,,0.00,830,Wunderground v.1.15,2013-02-08 00:04:00,
2013-02-08 11:09:00,80.6,63.5,29.99,NW,315,3.0,-999.0,56,0.00,,,0.00,830,Wunderground v.1.15,2013-02-08 00:09:00,
2013-02-08 11:14:00,80.6,63.5,29.99,NW,315,3.0,-999.0,56,0.00,,,0.00,830,Wunderground v.1.15,2013-02-08 00:14:00,
2013-02-08 11:19:00,83.0,61.9,29.99,NW,315,3.0,-999.0,49,0.00,,,0.00,894,Wunderground v.1.15,2013-02-08 00:19:00,
2013-02-08 11:24:00,83.0,61.9,29.99,NW,315,3.0,-999.0,49,0.00,,,0.00,894,Wunderground v.1.15,2013-02-08 00:24:00,
2013-02-08 11:29:00,83.0,61.9,29.99,NW,315,3.0,-999.0,49,0.00,,,0.00,894,Wunderground v.1.15,2013-02-08 00:29:00,
2013-02-08 11:34:00,83.0,61.9,29.99,NW,315,3.0,-999.0,49,0.00,,,0.00,894,Wunderground v.1.15,2013-02-08 00:34:00,
2013-02-08 11:39:00,83.0,61.9,29.99,NW,315,3.0,-999.0,49,0.00,,,0.00,894,Wunderground v.1.15,2013-02-08 00:39:00,
2013-02-08 11:44:00,83.0,61.9,29.99,NW,315,3.0,-999.0,49,0.00,,,0.00,894,Wunderground v.1.15,2013-02-08 00:44:00,
2013-02-08 11:49:00,86.0,64.6,29.98,NW,315,3.0,-999.0,49,0.00,,,0.00,937,Wunderground v.1.15,2013-02-08 00:49:00,
2013-02-08 11:54:00,86.0,64.6,29.98,NW,315,3.0,-999.0,49,0.00,,,0.00,937,Wunderground v.1.15,2013-02-08 00:54:00,
2013-02-08 11:59:00,86.0,64.6,29.98,NW,315,3.0,-999.0,49,0.00,,,0.00,937,Wunderground v.1.15,2013-02-08 00:59:00,
2013-02-08 12:04:00,86.0,64.6,29.98,NW,315,3.0,-999.0,49,0.00,,,0.00,937,Wunderground v.1.15,2013-02-08 01:04:00,
2013-02-08 12:09:00,86.0,64.6,29.98,NW,315,3.0,-999.0,49,0.00,,,0.00,937,Wunderground v.1.15,2013-02-08 01:09:00,
2013-02-08 12:14:00,86.0,64.6,29.98,NW,315,3.0,-999.0,49,0.00,,,0.00,937,Wunderground v.1.15,2013-02-08 01:14:00,
2013-02-08 12:19:00,87.1,59.8,29.97,NW,315,3.0,-999.0,40,0.00,,,0.00,965,Wunderground v.1.15,2013-02-08 01:19:00,
2013-02-08 12:24:00,87.1,59.8,29.97,NW,315,3.0,-999.0,40,0.00,,,0.00,965,Wunderground v.1.15,2013-02-08 01:24:00,
2013-02-08 12:29:00,87.1,59.8,29.97,NW,315,3.0,-999.0,40,0.00,,,0.00,965,Wunderground v.1.15,2013-02-08 01:29:00,
2013-02-08 12:34:00,87.1,59.8,29.97,NW,315,3.0,-999.0,40,0.00,,,0.00,965,Wunderground v.1.15,2013-02-08 01:34:00,
2013-02-08 12:39:00,87.1,59.8,29.97,NW,315,3.0,-999.0,40,0.00,,,0.00,965,Wunderground v.1.15,2013-02-08 01:39:00,
2013-02-08 12:44:00,87.1,59.8,29.97,NW,315,3.0,-999.0,40,0.00,,,0.00,965,Wunderground v.1.15,2013-02-08 01:44:00,
2013-02-08 12:49:00,87.3,68.6,29.97,NE,45,2.0,-999.0,54,0.00,,,0.00,986,Wunderground v.1.15,2013-02-08 01:49:00,
2013-02-08 12:54:00,87.3,68.6,29.97,NE,45,2.0,-999.0,54,0.00,,,0.00,986,Wunderground v.1.15,2013-02-08 01:54:00,
2013-02-08 12:59:00,87.3,68.6,29.97,NE,45,2.0,-999.0,54,0.00,,,0.00,986,Wunderground v.1.15,2013-02-08 01:59:00,
2013-02-08 13:04:00,87.3,68.6,29.97,NE,45,2.0,-999.0,54,0.00,,,0.00,986,Wunderground v.1.15,2013-02-08 02:04:00,
2013-02-08 13:09:00,87.3,68.6,29.97,NE,45,2.0,-999.0,54,0.00,,,0.00,986,Wunderground v.1.15,2013-02-08 02:09:00,
2013-02-08 13:14:00,87.3,68.6,29.97,NE,45,2.0,-999.0,54,0.00,,,0.00,986,Wunderground v.1.15,2013-02-08 02:14:00,
2013-02-08 13:19:00,85.0,66.5,29.96,NE,45,3.0,-999.0,54,0.00,,,0.00,983,Wunderground v.1.15,2013-02-08 02:19:00,
2013-02-08 13:24:00,85.0,66.5,29.96,NE,45,3.0,-999.0,54,0.00,,,0.00,983,Wunderground v.1.15,2013-02-08 02:24:00,
2013-02-08 13:29:00,85.0,66.5,29.96,NE,45,3.0,-999.0,54,0.00,,,0.00,983,Wunderground v.1.15,2013-02-08 02:29:00,
2013-02-08 13:34:00,85.0,66.5,29.96,NE,45,3.0,-999.0,54,0.00,,,0.00,983,Wunderground v.1.15,2013-02-08 02:34:00,
2013-02-08 13:39:00,84.3,65.3,29.95,ENE,72,4.0,15.0,53,0.00,,,0.00,976,Wunderground v.1.15,2013-02-08 02:39:00,
2013-02-08 13:44:00,84.3,65.3,29.95,NE,45,4.0,15.0,53,0.00,,,0.00,967,Wunderground v.1.15,2013-02-08 02:44:00,
2013-02-08 13:49:00,84.6,65.6,29.95,SE,136,4.0,4.0,53,0.00,,,0.00,963,Wunderground v.1.15,2013-02-08 02:49:00,
2013-02-08 13:54:00,84.7,65.7,29.95,NE,51,4.0,6.0,53,0.00,,,0.00,960,Wunderground v.1.15,2013-02-08 02:54:00,
2013-02-08 13:59:00,84.4,64.9,29.95,ENE,68,4.0,-999.0,52,0.00,,,0.00,969,Wunderground v.1.15,2013-02-08 02:59:00,
2013-02-08 14:04:00,85.3,65.1,29.95,ENE,59,4.0,4.0,51,0.00,,,0.00,954,Wunderground v.1.15,2013-02-08 03:04:00,
2013-02-08 14:09:00,85.3,64.0,29.95,ENE,60,3.0,7.0,49,0.00,,,0.00,949,Wunderground v.1.15,2013-02-08 03:09:00,
2013-02-08 14:14:00,85.4,64.1,29.95,ESE,116,4.0,4.0,49,0.00,,,0.00,947,Wunderground v.1.15,2013-02-08 03:14:00,
2013-02-08 14:19:00,85.5,64.2,29.94,ENE,68,4.0,-999.0,49,0.00,,,0.00,942,Wunderground v.1.15,2013-02-08 03:19:00,
2013-02-08 14:24:00,86.8,65.9,29.94,East,80,4.0,7.0,50,0.00,,,0.00,926,Wunderground v.1.15,2013-02-08 03:24:00,
2013-02-08 14:29:00,85.7,64.3,29.94,East,88,5.0,10.0,49,0.00,,,0.00,921,Wunderground v.1.15,2013-02-08 03:29:00,
2013-02-08 14:34:00,84.9,64.8,29.94,ESE,113,6.0,6.0,51,0.00,,,0.00,918,Wunderground v.1.15,2013-02-08 03:34:00,
2013-02-08 14:39:00,85.3,64.0,29.94,NE,55,4.0,6.0,49,0.00,,,0.00,907,Wunderground v.1.15,2013-02-08 03:39:00,
2013-02-08 14:44:00,84.7,63.4,29.94,East,86,4.0,4.0,49,0.00,,,0.00,902,Wunderground v.1.15,2013-02-08 03:44:00,
2013-02-08 14:49:00,85.1,64.4,29.94,North,360,4.0,4.0,50,0.00,,,0.00,891,Wunderground v.1.15,2013-02-08 03:49:00,
2013-02-08 14:54:00,85.4,64.1,29.93,NE,42,5.0,5.0,49,0.00,,,0.00,881,Wunderground v.1.15,2013-02-08 03:54:00,
2013-02-08 14:59:00,85.5,63.0,29.93,ENE,58,4.0,5.0,47,0.00,,,0.00,874,Wunderground v.1.15,2013-02-08 03:59:00,
2013-02-08 15:04:00,85.1,62.6,29.93,ENE,68,4.0,-999.0,47,0.00,,,0.00,899,Wunderground v.1.15,2013-02-08 04:04:00,
2013-02-08 15:09:00,86.7,64.1,29.93,ENE,64,3.0,4.0,47,0.00,,,0.00,853,Wunderground v.1.15,2013-02-08 04:09:00,
2013-02-08 15:14:00,85.9,63.3,29.93,NNE,20,3.0,3.0,47,0.00,,,0.00,840,Wunderground v.1.15,2013-02-08 04:14:00,
2013-02-08 15:19:00,86.3,64.9,29.92,NE,55,4.0,7.0,49,0.00,,,0.00,831,Wunderground v.1.15,2013-02-08 04:19:00,
2013-02-08 15:24:00,85.9,67.3,29.92,ENE,68,4.0,-999.0,54,0.00,,,0.00,843,Wunderground v.1.15,2013-02-08 04:24:00,
2013-02-08 15:29:00,85.2,66.7,29.92,NNE,13,5.0,5.0,54,0.00,,,0.00,810,Wunderground v.1.15,2013-02-08 04:29:00,
2013-02-08 15:34:00,84.6,66.1,29.92,ENE,64,5.0,5.0,54,0.00,,,0.00,796,Wunderground v.1.15,2013-02-08 04:34:00,
2013-02-08 15:39:00,85.4,66.3,29.92,ESE,112,5.0,5.0,53,0.00,,,0.00,784,Wunderground v.1.15,2013-02-08 04:39:00,
2013-02-08 15:44:00,84.7,66.7,29.92,ESE,116,6.0,6.0,55,0.00,,,0.00,772,Wunderground v.1.15,2013-02-08 04:44:00,
2013-02-08 15:49:00,86.1,67.0,29.92,NE,48,5.0,8.0,53,0.00,,,0.00,759,Wunderground v.1.15,2013-02-08 04:49:00,
2013-02-08 15:54:00,85.6,67.0,29.92,ENE,77,4.0,4.0,54,0.00,,,0.00,745,Wunderground v.1.15,2013-02-08 04:54:00,
2013-02-08 15:59:00,86.2,66.5,29.92,ENE,62,5.0,7.0,52,0.00,,,0.00,731,Wunderground v.1.15,2013-02-08 04:59:00,
2013-02-08 16:04:00,86.1,67.0,29.91,NE,54,4.0,4.0,53,0.00,,,0.00,715,Wunderground v.1.15,2013-02-08 05:04:00,
2013-02-08 16:09:00,86.1,67.5,29.91,ENE,78,4.0,5.0,54,0.00,,,0.00,700,Wunderground v.1.15,2013-02-08 05:09:00,
2013-02-08 16:14:00,86.3,67.7,29.91,SE,143,4.0,4.0,54,0.00,,,0.00,686,Wunderground v.1.15,2013-02-08 05:14:00,
2013-02-08 16:19:00,86.2,67.6,29.91,ESE,103,3.0,4.0,54,0.00,,,0.00,670,Wunderground v.1.15,2013-02-08 05:19:00,
2013-02-08 16:24:00,85.6,67.6,29.91,ENE,76,3.0,5.0,55,0.00,,,0.00,652,Wunderground v.1.15,2013-02-08 05:24:00,
2013-02-08 16:29:00,86.0,68.5,29.91,ENE,68,4.0,-999.0,56,0.00,,,0.00,683,Wunderground v.1.15,2013-02-08 05:29:00,
2013-02-08 16:34:00,84.8,67.9,29.91,East,94,4.0,4.0,57,0.00,,,0.00,624,Wunderground v.1.15,2013-02-08 05:34:00,
2013-02-08 16:39:00,85.3,68.3,29.91,NNE,28,4.0,4.0,57,0.00,,,0.00,606,Wunderground v.1.15,2013-02-08 05:39:00,
2013-02-08 16:44:00,85.0,67.5,29.91,East,88,5.0,5.0,56,0.00,,,0.00,589,Wunderground v.1.15,2013-02-08 05:44:00,
2013-02-08 16:49:00,84.9,68.0,29.91,ESE,117,5.0,5.0,57,0.00,,,0.00,573,Wunderground v.1.15,2013-02-08 05:49:00,
2013-02-08 16:54:00,85.2,68.2,29.91,NNE,15,4.0,4.0,57,0.00,,,0.00,559,Wunderground v.1.15,2013-02-08 05:54:00,
2013-02-08 16:59:00,86.0,68.0,29.90,ENE,65,3.0,5.0,55,0.00,,,0.00,536,Wunderground v.1.15,2013-02-08 05:59:00,
2013-02-08 17:04:00,85.8,68.3,29.90,NE,38,3.0,3.0,56,0.00,,,0.00,522,Wunderground v.1.15,2013-02-08 06:04:00,
2013-02-08 17:09:00,85.1,68.2,29.90,WNW,302,3.0,3.0,57,0.00,,,0.00,506,Wunderground v.1.15,2013-02-08 06:09:00,
2013-02-08 17:14:00,84.9,68.0,29.90,NNW,343,3.0,3.0,57,0.00,,,0.00,497,Wunderground v.1.15,2013-02-08 06:14:00,
2013-02-08 17:19:00,84.2,67.8,29.90,ENE,59,4.0,7.0,58,0.00,,,0.00,480,Wunderground v.1.15,2013-02-08 06:19:00,
2013-02-08 17:24:00,84.3,67.4,29.90,West,273,4.0,4.0,57,0.00,,,0.00,457,Wunderground v.1.15,2013-02-08 06:24:00,
2013-02-08 17:29:00,84.1,67.7,29.91,ENE,65,4.0,4.0,58,0.00,,,0.00,439,Wunderground v.1.15,2013-02-08 06:29:00,
2013-02-08 17:34:00,84.9,68.5,29.91,ENE,68,4.0,-999.0,58,0.00,,,0.00,490,Wunderground v.1.15,2013-02-08 06:34:00,
2013-02-08 17:39:00,83.9,68.0,29.90,SSE,153,4.0,4.0,59,0.00,,,0.00,404,Wunderground v.1.15,2013-02-08 06:39:00,
2013-02-08 17:44:00,83.3,68.0,29.90,ENE,61,4.0,4.0,60,0.00,,,0.00,383,Wunderground v.1.15,2013-02-08 06:44:00,
2013-02-08 17:49:00,83.2,68.3,29.91,ENE,71,5.0,5.0,61,0.00,,,0.00,367,Wunderground v.1.15,2013-02-08 06:49:00,
2013-02-08 17:54:00,83.2,67.9,29.91,WSW,251,4.0,4.0,60,0.00,,,0.00,348,Wunderground v.1.15,2013-02-08 06:54:00,
2013-02-08 17:59:00,83.1,68.3,29.91,East,84,3.0,6.0,61,0.00,,,0.00,329,Wunderground v.1.15,2013-02-08 06:59:00,
2013-02-08 18:04:00,83.0,68.2,29.91,NE,49,4.0,4.0,61,0.00,,,0.00,313,Wunderground v.1.15,2013-02-08 07:04:00,
2013-02-08 18:09:00,83.5,68.6,29.91,ENE,68,4.0,-999.0,61,0.00,,,0.00,383,Wunderground v.1.15,2013-02-08 07:09:00,
2013-02-08 18:14:00,83.1,68.3,29.91,North,349,3.0,3.0,61,0.00,,,0.00,279,Wunderground v.1.15,2013-02-08 07:14:00,
2013-02-08 18:19:00,82.5,68.2,29.91,ENE,64,3.0,9.0,62,0.00,,,0.00,264,Wunderground v.1.15,2013-02-08 07:19:00,
2013-02-08 18:24:00,82.1,67.8,29.91,NE,44,3.0,4.0,62,0.00,,,0.00,246,Wunderground v.1.15,2013-02-08 07:24:00,
2013-02-08 18:29:00,82.4,67.6,29.91,ENE,66,4.0,4.0,61,0.00,,,0.00,232,Wunderground v.1.15,2013-02-08 07:29:00,
2013-02-08 18:34:00,82.0,67.2,29.91,NE,51,3.0,3.0,61,0.00,,,0.00,216,Wunderground v.1.15,2013-02-08 07:34:00,
2013-02-08 18:39:00,82.7,67.9,29.91,ENE,68,3.0,-999.0,61,0.00,,,0.00,280,Wunderground v.1.15,2013-02-08 07:39:00,
2013-02-08 18:44:00,81.4,67.1,29.91,East,89,4.0,4.0,62,0.00,,,0.00,185,Wunderground v.1.15,2013-02-08 07:44:00,
2013-02-08 18:49:00,81.3,67.5,29.91,East,90,4.0,4.0,63,0.00,,,0.00,167,Wunderground v.1.15,2013-02-08 07:49:00,
2013-02-08 18:54:00,81.0,66.8,29.91,NE,40,4.0,4.0,62,0.00,,,0.00,148,Wunderground v.1.15,2013-02-08 07:54:00,
2013-02-08 18:59:00,80.7,66.9,29.91,South,175,4.0,4.0,63,0.00,,,0.00,128,Wunderground v.1.15,2013-02-08 07:59:00,
2013-02-08 19:04:00,81.6,67.8,29.91,ENE,68,4.0,-999.0,63,0.00,,,0.00,183,Wunderground v.1.15,2013-02-08 08:04:00,
2013-02-08 19:09:00,80.2,66.5,29.91,East,93,4.0,6.0,63,0.00,,,0.00,95,Wunderground v.1.15,2013-02-08 08:09:00,
2013-02-08 19:14:00,79.9,66.2,29.91,ENE,78,4.0,4.0,63,0.00,,,0.00,35,Wunderground v.1.15,2013-02-08 08:14:00,
2013-02-08 19:19:00,79.8,67.4,29.91,ENE,68,5.0,-999.0,66,0.00,,,0.00,59,Wunderground v.1.15,2013-02-08 08:19:00,
2013-02-08 19:24:00,79.0,66.2,29.91,East,90,5.0,7.0,65,0.00,,,0.00,25,Wunderground v.1.15,2013-02-08 08:24:00,
2013-02-08 19:29:00,78.7,66.4,29.91,East,94,5.0,7.0,66,0.00,,,0.00,14,Wunderground v.1.15,2013-02-08 08:29:00,
2013-02-08 19:34:00,78.3,66.4,29.91,ENE,73,5.0,8.0,67,0.00,,,0.00,9,Wunderground v.1.15,2013-02-08 08:34:00,
2013-02-08 19:39:00,77.9,66.1,29.91,ENE,67,5.0,8.0,67,0.00,,,0.00,7,Wunderground v.1.15,2013-02-08 08:39:00,
2013-02-08 19:44:00,77.6,66.2,29.92,ENE,67,5.0,5.0,68,0.00,,,0.00,5,Wunderground v.1.15,2013-02-08 08:44:00,
2013-02-08 19:49:00,77.4,66.0,29.92,ENE,69,5.0,8.0,68,0.00,,,0.00,0,Wunderground v.1.15,2013-02-08 08:49:00,
2013-02-08 19:54:00,77.1,66.1,29.92,NE,49,5.0,5.0,69,0.00,,,0.00,0,Wunderground v.1.15,2013-02-08 08:54:00,
2013-02-08 19:59:00,77.0,66.0,29.92,ENE,68,5.0,5.0,69,0.00,,,0.00,0,Wunderground v.1.15,2013-02-08 08:59:00,
2013-02-08 20:04:00,77.7,66.7,29.92,ENE,68,5.0,-999.0,69,0.00,,,0.00,4,Wunderground v.1.15,2013-02-08 09:04:00,
2013-02-08 20:09:00,76.7,65.3,29.92,East,87,5.0,7.0,68,0.00,,,0.00,0,Wunderground v.1.15,2013-02-08 09:09:00,
2013-02-08 20:14:00,76.7,65.3,29.92,East,101,4.0,8.0,68,0.00,,,0.00,0,Wunderground v.1.15,2013-02-08 09:14:00,
2013-02-08 20:19:00,76.6,64.8,29.92,ESE,122,4.0,8.0,67,0.00,,,0.00,0,Wunderground v.1.15,2013-02-08 09:19:00,
2013-02-08 20:24:00,76.7,64.9,29.92,ENE,68,4.0,-999.0,67,0.00,,,0.00,0,Wunderground v.1.15,2013-02-08 09:24:00,
2013-02-08 20:29:00,76.3,64.5,29.92,ESE,107,5.0,5.0,67,0.00,,,0.00,0,Wunderground v.1.15,2013-02-08 09:29:00,
2013-02-08 20:34:00,76.1,64.8,29.93,NNE,27,4.0,6.0,68,0.00,,,0.00,0,Wunderground v.1.15,2013-02-08 09:34:00,
2013-02-08 20:39:00,76.0,64.2,29.93,NE,42,3.0,6.0,67,0.00,,,0.00,0,Wunderground v.1.15,2013-02-08 09:39:00,
2013-02-08 20:44:00,75.8,64.5,29.93,NE,42,3.0,3.0,68,0.00,,,0.00,0,Wunderground v.1.15,2013-02-08 09:44:00,
2013-02-08 20:49:00,75.7,64.4,29.93,NE,55,3.0,3.0,68,0.00,,,0.00,0,Wunderground v.1.15,2013-02-08 09:49:00,
2013-02-08 20:54:00,75.5,64.2,29.93,ENE,62,3.0,3.0,68,0.00,,,0.00,0,Wunderground v.1.15,2013-02-08 09:54:00,
2013-02-08 20:59:00,75.4,64.1,29.93,East,82,3.0,3.0,68,0.00,,,0.00,0,Wunderground v.1.15,2013-02-08 09:59:00,
2013-02-08 21:04:00,75.8,64.5,29.93,NE,45,3.0,-999.0,68,0.00,,,0.00,0,Wunderground v.1.15,2013-02-08 10:04:00,
2013-02-08 21:09:00,75.2,63.9,29.94,NNE,21,4.0,4.0,68,0.00,,,0.00,0,Wunderground v.1.15,2013-02-08 10:09:00,
2013-02-08 21:14:00,75.0,64.1,29.94,NE,41,4.0,7.0,69,0.00,,,0.00,0,Wunderground v.1.15,2013-02-08 10:14:00,
2013-02-08 21:19:00,74.9,64.0,29.94,NE,37,4.0,7.0,69,0.00,,,0.00,0,Wunderground v.1.15,2013-02-08 10:19:00,
2013-02-08 21:24:00,74.7,64.3,29.94,East,90,3.0,3.0,70,0.00,,,0.00,0,Wunderground v.1.15,2013-02-08 10:24:00,
2013-02-08 21:29:00,75.0,64.5,29.94,NE,45,4.0,-999.0,70,0.00,,,0.00,0,Wunderground v.1.15,2013-02-08 10:29:00,
2013-02-08 21:34:00,74.4,64.4,29.94,NNE,33,4.0,4.0,71,0.00,,,0.00,0,Wunderground v.1.15,2013-02-08 10:34:00,
2013-02-08 21:39:00,74.3,64.3,29.94,ENE,69,3.0,4.0,71,0.00,,,0.00,0,Wunderground v.1.15,2013-02-08 10:39:00,
2013-02-08 21:44:00,74.1,64.5,29.94,NE,38,3.0,3.0,72,0.00,,,0.00,0,Wunderground v.1.15,2013-02-08 10:44:00,
2013-02-08 21:49:00,74.0,64.4,29.94,ENE,77,4.0,15.0,72,0.00,,,0.00,0,Wunderground v.1.15,2013-02-08 10:49:00,
2013-02-08 21:54:00,73.9,64.7,29.94,NNE,27,4.0,6.0,73,0.00,,,0.00,0,Wunderground v.1.15,2013-02-08 10:54:00,
2013-02-08 21:59:00,73.7,64.5,29.95,NE,46,4.0,6.0,73,0.00,,,0.00,0,Wunderground v.1.15,2013-02-08 10:59:00,
2013-02-08 22:04:00,74.1,64.9,29.95,NE,45,4.0,-999.0,73,0.00,,,0.00,0,Wunderground v.1.15,2013-02-08 11:04:00,
2013-02-08 22:09:00,73.5,64.7,29.95,NE,41,4.0,7.0,74,0.00,,,0.00,0,Wunderground v.1.15,2013-02-08 11:09:00,
2013-02-08 22:14:00,73.4,64.6,29.95,East,85,4.0,4.0,74,0.00,,,0.00,0,Wunderground v.1.15,2013-02-08 11:14:00,
2013-02-08 22:19:00,73.3,64.5,29.95,ENE,76,4.0,4.0,74,0.00,,,0.00,0,Wunderground v.1.15,2013-02-08 11:19:00,
2013-02-08 22:24:00,73.2,64.8,29.95,NNE,13,3.0,3.0,75,0.00,,,0.00,0,Wunderground v.1.15,2013-02-08 11:24:00,
2013-02-08 22:29:00,73.4,65.0,29.95,NE,45,4.0,-999.0,75,0.00,,,0.00,0,Wunderground v.1.15,2013-02-08 11:29:00,
2013-02-08 22:34:00,73.0,64.6,29.95,NE,35,3.0,3.0,75,0.00,,,0.00,0,Wunderground v.1.15,2013-02-08 11:34:00,
2013-02-08 22:39:00,72.9,64.5,29.95,ENE,64,2.0,4.0,75,0.00,,,0.00,0,Wunderground v.1.15,2013-02-08 11:39:00,
2013-02-08 22:44:00,72.8,64.8,29.95,NE,34,3.0,3.0,76,0.00,,,0.00,0,Wunderground v.1.15,2013-02-08 11:44:00,
2013-02-08 22:49:00,72.7,64.7,29.95,NE,54,3.0,5.0,76,0.00,,,0.00,0,Wunderground v.1.15,2013-02-08 11:49:00,
2013-02-08 22:54:00,72.6,64.6,29.95,NNE,20,4.0,4.0,76,0.00,,,0.00,0,Wunderground v.1.15,2013-02-08 11:54:00,
2013-02-08 22:59:00,72.5,64.5,29.95,NE,40,3.0,4.0,76,0.00,,,0.00,0,Wunderground v.1.15,2013-02-08 11:59:00,
2013-02-08 23:04:00,72.4,64.8,29.95,NNE,33,3.0,3.0,77,0.00,,,0.00,0,Wunderground v.1.15,2013-02-08 12:04:00,
2013-02-08 23:09:00,72.2,64.6,29.95,NE,39,2.0,4.0,77,0.00,,,0.00,0,Wunderground v.1.15,2013-02-08 12:09:00,
2013-02-08 23:14:00,72.1,64.5,29.95,East,80,3.0,5.0,77,0.00,,,0.00,0,Wunderground v.1.15,2013-02-08 12:14:00,
2013-02-08 23:19:00,72.1,64.9,29.95,NNE,28,3.0,5.0,78,0.00,,,0.00,0,Wunderground v.1.15,2013-02-08 12:19:00,
2013-02-08 23:24:00,72.0,64.8,29.95,ENE,60,3.0,3.0,78,0.00,,,0.00,0,Wunderground v.1.15,2013-02-08 12:24:00,
2013-02-08 23:29:00,71.9,64.7,29.95,NNE,17,3.0,4.0,78,0.00,,,0.00,0,Wunderground v.1.15,2013-02-08 12:29:00,
2013-02-08 23:34:00,72.2,65.0,29.95,NE,45,3.0,-999.0,78,0.00,,,0.00,0,Wunderground v.1.15,2013-02-08 12:34:00,
2013-02-08 23:39:00,71.7,64.8,29.95,NNW,345,3.0,3.0,79,0.00,,,0.00,0,Wunderground v.1.15,2013-02-08 12:39:00,
2013-02-08 23:44:00,71.6,64.7,29.95,NNW,342,3.0,4.0,79,0.00,,,0.00,0,Wunderground v.1.15,2013-02-08 12:44:00,
2013-02-08 23:49:00,71.6,65.1,29.95,NE,34,3.0,7.0,80,0.00,,,0.00,0,Wunderground v.1.15,2013-02-08 12:49:00,
2013-02-08 23:54:00,71.5,65.0,29.95,North,5,3.0,4.0,80,0.00,,,0.00,0,Wunderground v.1.15,2013-02-08 12:54:00,
2013-02-08 23:59:00,71.4,64.9,29.95,NE,41,3.0,4.0,80,0.00,,,0.00,0,Wunderground v.1.15,2013-02-08 12:59:00,